Dorchester, MA (02122)

10:11 AM EST on March 05, 2015 (GMT -0500)
Dorchester | Change Station
CLOSE
Current Station
Personal Weather Station
Location: Quincy, MA
Elevation: 85 ft
Nearby Weather Stations
Active Advisory: Special Statement Active Notice: Public Information Statement

Elev 85 ft 42.31 °N, 71.07 °W | Updated 29 seconds ago

Overcast
Overcast
31.2 °F
Feels Like 31 °F
N
2.0
Wind Variable Wind from NW
Gusts 14.0 mph

Today
High -- | Low -- °F
--% Chance of Precip.
Yesterday
High -- | Low -- °F
Precip. -- in
6:13 AM 5:38 PM
Full, 100% visible
Pressure 30.04 in
Visibility 10.0 miles
Clouds Overcast 6500 ft
Windchill 31 °F
Dew Point 12 °F
Humidity 45%
Rainfall in
Snow Depth Not available.
UV 1 out of 12
Pollen .40 out of 12
Air Quality Not available.
Flu Activity Not available.
METAR KBOS 051454Z 30012KT 10SM OVC065 M01/M13 A3004 RMK AO2 SLP173 60000 T10061128 53011

More Conditions Fewer Conditions

Pressure 30.04 in
Visibility 10.0 miles
Clouds Overcast 6500 ft
Windchill 31 °F
Dew Point 12 °F
Humidity 45%
Rainfall in
Snow Depth Not available.
UV 1 out of 12
Pollen .40 out of 12
Air Quality Not available.
Flu Activity Not available.
METAR KBOS 051454Z 30012KT 10SM OVC065 M01/M13 A3004 RMK AO2 SLP173 60000 T10061128 53011

More Conditions Fewer Conditions

10-Day Weather Forecast

Almanac

Astronomy

Mar. 05, 2015 Rise Set
Actual Time
Civil Twilight
Nautical Twilight
Astronomical Twilight
Moon
Length of Visible Light
Length of Day
Tomorrow will be .
, % of the Moon is Illuminated

Today's Extremes

State Highs State Lows

Community

WunderPhotos

Upload Photos

1,802,806 photos uploaded!

WunderBlogs® & News

Nearby

Air Quality

  Air Quality AQ Index Pollutant
Not available.

Snow Depth

Station Depth Elevation

Earthquake Activity

City Distance Mag. Time & Date
Minimum magnitude displayed is 2.5.

Coastal Water Temperatures

Place Temperature

Nearby Weather Stations

Special Statement
Statement as of 8:34 AM EST on March 05, 2015

... Black ice and slippery roads as temperatures fall...

Temperatures continue to fall with many locations falling below
freezing. This has resulted in any snowmelt from the past 24 to
36 hours refreezing... below the snow that is falling this morning.
Untreated roads and sidewalks will have black ice forming on them.
Motorists should drive with extra caution if travelling this
morning.


Rlg